Time;durP1;ratioP1;P1;durP2;ratioP2;P2;SDS_P1;SDS_P2;PMS_P1;PMS_P2;Temp;Humidity;BMP_temperature;BMP_pressure;BME280_temperature;BME280_humidity;BME280_pressure;Samples;Min_cycle;Max_cycle;Signal;HPM_P1;HPM_P2
2023/02/12 00:00:07;;;;;;;22.13;9.63;;;9.30;99.90;;;;;;4980174;28;89094;-77
2023/02/12 00:02:40;;;;;;;23.83;9.50;;;9.30;99.90;;;;;;4997375;28;89102;-77
2023/02/12 00:05:07;;;;;;;25.88;9.02;;;9.30;99.90;;;;;;4996538;28;90633;-77
2023/02/12 00:07:34;;;;;;;23.98;9.25;;;9.30;99.90;;;;;;4980136;28;88891;-77
2023/02/12 00:10:04;;;;;;;26.90;9.10;;;9.30;99.90;;;;;;4997764;28;88724;-77
2023/02/12 00:12:31;;;;;;;17.77;7.72;;;9.30;99.90;;;;;;4979965;28;89959;-77
2023/02/12 00:14:58;;;;;;;20.63;8.48;;;9.30;99.90;;;;;;4996271;28;91042;-77
2023/02/12 00:17:25;;;;;;;26.80;8.77;;;9.30;99.90;;;;;;4996249;28;88978;-77
2023/02/12 00:19:52;;;;;;;18.73;8.05;;;9.30;99.90;;;;;;4996868;28;88657;-77
2023/02/12 00:22:19;;;;;;;28.00;9.35;;;9.30;99.90;;;;;;4979836;28;89042;-77
2023/02/12 00:24:46;;;;;;;26.00;8.63;;;9.30;99.90;;;;;;4979868;28;88443;-77
2023/02/12 00:27:13;;;;;;;25.02;9.48;;;9.30;99.90;;;;;;4995904;28;90980;-77
2023/02/12 00:29:40;;;;;;;22.30;9.38;;;9.30;99.90;;;;;;4996058;28;92117;-77
2023/02/12 00:32:07;;;;;;;26.83;9.05;;;9.30;99.90;;;;;;4997344;28;88065;-77
2023/02/12 00:34:34;;;;;;;23.77;8.70;;;9.30;99.90;;;;;;4997415;28;88372;-77
2023/02/12 00:37:01;;;;;;;26.40;9.80;;;9.30;99.90;;;;;;4980030;28;88902;-77
2023/02/12 00:39:28;;;;;;;19.58;8.30;;;9.30;99.90;;;;;;4995758;28;91325;-77
2023/02/12 00:41:55;;;;;;;24.80;8.50;;;9.30;99.90;;;;;;4979924;28;88019;-77
2023/02/12 00:44:22;;;;;;;19.55;9.65;;;9.30;99.90;;;;;;4996598;28;88327;-77
2023/02/12 00:46:49;;;;;;;18.75;9.73;;;9.40;99.90;;;;;;4998611;28;88658;-77
2023/02/12 00:49:19;;;;;;;23.83;9.63;;;9.30;99.90;;;;;;4998844;28;90062;-78
2023/02/12 00:51:46;;;;;;;26.42;9.85;;;9.30;99.90;;;;;;4999103;28;89223;-77
2023/02/12 00:54:13;;;;;;;20.80;10.10;;;9.30;99.90;;;;;;4966658;28;91066;-77
2023/02/12 00:56:41;;;;;;;19.58;9.63;;;9.30;99.90;;;;;;4999899;28;88554;-77
2023/02/12 00:59:08;;;;;;;24.02;10.40;;;9.30;99.90;;;;;;4999174;28;91810;-77
2023/02/12 01:01:35;;;;;;;23.52;10.15;;;9.30;99.90;;;;;;4999806;28;88509;-77
2023/02/12 01:04:03;;;;;;;23.70;9.60;;;9.30;99.90;;;;;;4998557;28;89160;-77
2023/02/12 01:06:30;;;;;;;23.35;10.30;;;9.30;99.90;;;;;;5000495;28;89306;-77
2023/02/12 01:08:57;;;;;;;22.00;9.95;;;9.30;99.90;;;;;;4998609;28;89413;-77
2023/02/12 01:11:24;;;;;;;17.92;9.02;;;9.30;99.90;;;;;;4982533;28;91396;-77
2023/02/12 01:13:51;;;;;;;22.00;9.70;;;9.40;99.90;;;;;;5000219;28;88399;-77
2023/02/12 01:16:21;;;;;;;25.13;9.32;;;9.30;99.90;;;;;;4982501;28;91375;-77
2023/02/12 01:18:50;;;;;;;20.48;9.38;;;9.30;99.90;;;;;;4998899;28;89325;-77
2023/02/12 01:21:24;;;;;;;30.17;10.40;;;9.30;99.90;;;;;;4999393;28;89539;-77
2023/02/12 01:23:51;;;;;;;19.63;9.50;;;9.30;99.90;;;;;;4998244;28;91574;-77
2023/02/12 01:26:19;;;;;;;22.42;10.18;;;9.30;99.90;;;;;;5000281;28;88608;-77
2023/02/12 01:28:52;;;;;;;24.35;10.48;;;9.30;99.90;;;;;;4997906;28;89687;-77
2023/02/12 01:31:22;;;;;;;23.17;10.57;;;9.30;99.90;;;;;;4981254;28;91273;-77
2023/02/12 01:33:55;;;;;;;23.25;9.73;;;9.30;99.90;;;;;;4981550;28;89988;-77
2023/02/12 01:36:23;;;;;;;20.17;9.30;;;9.30;99.90;;;;;;5000176;28;88898;-78
2023/02/12 01:38:51;;;;;;;22.85;10.43;;;9.30;99.90;;;;;;4999688;28;88573;-77
2023/02/12 01:41:23;;;;;;;25.17;11.27;;;9.30;99.90;;;;;;4999108;28;88850;-78
2023/02/12 01:44:18;;;;;;;19.15;9.60;;;9.30;99.90;;;;;;4981129;28;91061;-77
2023/02/12 01:46:46;;;;;;;18.52;9.10;;;9.30;99.90;;;;;;4981840;28;91509;-77
2023/02/12 01:49:35;;;;;;;22.80;10.98;;;9.30;99.90;;;;;;4997941;28;88735;-77
2023/02/12 01:52:14;;;;;;;23.92;10.48;;;9.30;99.90;;;;;;4981088;28;89663;-77
2023/02/12 01:54:41;;;;;;;27.35;11.52;;;9.30;99.90;;;;;;4997512;28;90907;-77
2023/02/12 01:57:11;;;;;;;23.90;10.23;;;9.20;99.90;;;;;;4980478;28;95542;-77
2023/02/12 01:59:39;;;;;;;19.60;11.27;;;9.20;99.90;;;;;;4998974;28;89420;-77
2023/02/12 02:02:06;;;;;;;19.75;10.18;;;9.20;99.90;;;;;;4981342;28;91722;-77
2023/02/12 02:04:44;;;;;;;21.50;10.40;;;9.20;99.90;;;;;;4981309;28;91075;-77
2023/02/12 02:07:11;;;;;;;22.58;11.18;;;9.30;99.90;;;;;;4980682;28;92698;-77
2023/02/12 02:09:39;;;;;;;23.92;10.45;;;9.20;99.90;;;;;;4997713;28;89443;-77
2023/02/12 02:14:59;;;;;;;23.52;8.95;;;9.20;99.90;;;;;;4997954;28;90954;-77
2023/02/12 02:17:47;;;;;;;23.23;10.33;;;9.20;99.90;;;;;;4998014;28;89869;-78
2023/02/12 02:20:48;;;;;;;19.50;9.80;;;9.20;99.90;;;;;;4997304;28;92095;-77
2023/02/12 02:23:29;;;;;;;21.85;9.35;;;9.20;99.90;;;;;;4998568;28;88978;-77
2023/02/12 02:26:20;;;;;;;20.05;10.13;;;9.20;99.90;;;;;;4981426;28;91139;-77
2023/02/12 02:28:58;;;;;;;28.33;10.60;;;9.20;99.90;;;;;;4998663;28;88840;-77
2023/02/12 02:31:48;;;;;;;20.92;10.02;;;9.20;99.90;;;;;;4998661;28;89485;-77
2023/02/12 02:34:41;;;;;;;23.05;10.95;;;9.20;99.90;;;;;;4997121;28;88858;-77
2023/02/12 02:37:18;;;;;;;27.50;10.90;;;9.20;99.90;;;;;;4998482;28;88965;-77
2023/02/12 02:39:54;;;;;;;26.80;10.98;;;9.20;99.90;;;;;;4997487;28;88886;-77
2023/02/12 02:42:44;;;;;;;24.73;10.85;;;9.20;99.90;;;;;;4998576;28;89334;-78
2023/02/12 02:45:23;;;;;;;26.38;11.63;;;9.20;99.90;;;;;;4996580;28;91629;-77
2023/02/12 02:47:56;;;;;;;25.85;11.50;;;9.20;99.90;;;;;;4998133;28;88596;-77
2023/02/12 02:50:26;;;;;;;23.40;11.57;;;9.20;99.90;;;;;;4997667;28;89214;-77
2023/02/12 02:53:12;;;;;;;21.98;11.50;;;9.20;99.90;;;;;;4997031;28;89499;-77
2023/02/12 02:55:53;;;;;;;25.27;11.40;;;9.20;99.90;;;;;;4997073;28;89538;-77
2023/02/12 02:58:25;;;;;;;18.30;11.00;;;9.20;99.90;;;;;;4998257;28;88921;-77
2023/02/12 03:01:23;;;;;;;25.05;11.73;;;9.10;99.90;;;;;;4997807;28;89793;-77
2023/02/12 03:04:17;;;;;;;28.60;13.55;;;9.20;99.90;;;;;;4979831;28;92613;-77
2023/02/12 03:06:52;;;;;;;24.13;11.38;;;9.20;99.90;;;;;;4980071;28;90578;-77
2023/02/12 03:09:26;;;;;;;28.05;12.75;;;9.10;99.90;;;;;;4995448;28;91039;-77
2023/02/12 03:11:58;;;;;;;26.37;12.27;;;9.10;99.90;;;;;;4996319;28;91640;-77
2023/02/12 03:14:39;;;;;;;25.77;12.35;;;9.10;99.90;;;;;;4996290;28;90668;-77
2023/02/12 03:17:12;;;;;;;28.23;12.02;;;9.20;99.90;;;;;;4996135;28;91200;-77
2023/02/12 03:19:56;;;;;;;26.37;12.80;;;9.10;99.90;;;;;;4996988;28;88588;-77
2023/02/12 03:22:47;;;;;;;25.13;11.93;;;9.10;99.90;;;;;;4996626;28;89017;-77
2023/02/12 03:25:24;;;;;;;24.02;12.18;;;9.10;99.90;;;;;;4997209;28;89286;-77
2023/02/12 03:27:58;;;;;;;22.20;12.55;;;9.10;99.90;;;;;;4997539;28;88818;-77
2023/02/12 03:30:43;;;;;;;25.83;13.32;;;9.10;99.90;;;;;;4997861;28;88800;-77
2023/02/12 03:33:22;;;;;;;28.80;14.23;;;9.10;99.90;;;;;;4995671;28;91497;-77
2023/02/12 03:36:00;;;;;;;23.92;12.55;;;9.10;99.90;;;;;;4996205;28;89677;-77
2023/02/12 03:38:45;;;;;;;33.65;13.38;;;9.10;99.90;;;;;;4995964;28;90529;-77
2023/02/12 03:41:30;;;;;;;26.75;12.90;;;9.10;99.90;;;;;;4995762;28;91361;-77
2023/02/12 03:43:57;;;;;;;31.27;13.63;;;9.10;99.90;;;;;;4997155;28;88862;-77
2023/02/12 03:46:49;;;;;;;27.00;13.60;;;9.00;99.90;;;;;;4995978;28;91961;-77
2023/02/12 03:49:22;;;;;;;33.05;14.02;;;9.10;99.90;;;;;;4996887;28;88820;-77
2023/02/12 03:51:49;;;;;;;25.45;12.95;;;9.00;99.90;;;;;;4979280;28;90783;-77
2023/02/12 03:54:19;;;;;;;28.02;13.90;;;9.00;99.90;;;;;;4979062;28;89658;-76
2023/02/12 03:56:51;;;;;;;31.38;14.55;;;9.00;99.90;;;;;;4996648;28;89491;-77
2023/02/12 03:59:23;;;;;;;27.10;14.25;;;9.00;99.90;;;;;;4995609;28;91906;-77
2023/02/12 04:01:53;;;;;;;31.45;14.13;;;9.00;99.90;;;;;;4996013;28;89059;-77
2023/02/12 04:04:21;;;;;;;24.70;13.35;;;9.00;99.90;;;;;;4995600;28;88939;-77
2023/02/12 04:06:50;;;;;;;35.42;14.57;;;9.00;99.90;;;;;;4995102;28;102746;-77
2023/02/12 04:09:18;;;;;;;27.83;12.43;;;9.00;99.90;;;;;;4979027;28;91679;-77
2023/02/12 04:12:20;;;;;;;30.90;14.70;;;9.00;99.90;;;;;;4979222;28;90998;-77
2023/02/12 04:15:02;;;;;;;26.90;13.27;;;9.00;99.90;;;;;;4926635;28;89569;-77
2023/02/12 04:17:29;;;;;;;33.42;14.07;;;9.00;99.90;;;;;;4996825;28;89533;-77
2023/02/12 04:20:08;;;;;;;25.35;13.45;;;9.00;99.90;;;;;;4995625;28;89286;-77
2023/02/12 04:22:48;;;;;;;33.60;15.15;;;9.00;99.90;;;;;;4998987;28;89490;-77
2023/02/12 04:25:42;;;;;;;29.90;14.80;;;9.00;99.90;;;;;;4999043;28;88857;-77
2023/02/12 04:28:18;;;;;;;25.38;13.65;;;9.00;99.90;;;;;;4999076;28;89101;-77
2023/02/12 04:30:51;;;;;;;30.52;13.70;;;9.00;99.90;;;;;;4998884;28;91510;-77
2023/02/12 04:33:21;;;;;;;30.48;14.90;;;9.00;99.90;;;;;;4998769;28;88393;-77
2023/02/12 04:36:01;;;;;;;30.20;14.38;;;9.00;99.90;;;;;;4998640;28;90898;-77
2023/02/12 04:38:56;;;;;;;30.98;15.45;;;9.00;99.90;;;;;;5000245;28;89408;-77
2023/02/12 04:41:24;;;;;;;35.38;14.20;;;9.00;99.90;;;;;;4997151;28;89071;-77
2023/02/12 04:43:51;;;;;;;36.45;15.10;;;9.00;99.90;;;;;;5000075;28;88682;-77
2023/02/12 04:46:18;;;;;;;40.33;16.67;;;9.00;99.90;;;;;;4999663;28;89656;-77
2023/02/12 04:48:57;;;;;;;39.30;15.77;;;9.00;99.90;;;;;;4981902;28;94944;-77
2023/02/12 04:51:24;;;;;;;33.38;15.93;;;9.00;99.90;;;;;;4999730;28;89003;-77
2023/02/12 04:53:51;;;;;;;46.78;16.42;;;8.90;99.90;;;;;;4982332;28;88712;-77
2023/02/12 04:56:18;;;;;;;35.13;15.73;;;8.90;99.90;;;;;;4999777;28;88634;-77
2023/02/12 04:58:45;;;;;;;44.65;16.73;;;8.90;99.90;;;;;;4999792;28;89715;-78
2023/02/12 05:01:12;;;;;;;42.05;17.30;;;8.90;99.90;;;;;;4997918;28;91508;-77
2023/02/12 05:03:39;;;;;;;39.53;16.08;;;8.90;99.90;;;;;;4998967;28;88536;-77
2023/02/12 05:06:07;;;;;;;38.83;17.02;;;8.90;99.90;;;;;;4998313;28;91608;-77
2023/02/12 05:08:35;;;;;;;36.28;15.93;;;8.90;99.90;;;;;;4998709;28;89828;-78
2023/02/12 05:11:06;;;;;;;37.47;17.10;;;8.90;99.90;;;;;;4981709;28;91478;-77
2023/02/12 05:13:34;;;;;;;36.45;16.33;;;8.90;99.90;;;;;;5000245;28;88452;-77
2023/02/12 05:16:05;;;;;;;39.13;16.38;;;8.90;99.90;;;;;;4999811;28;88600;-77
2023/02/12 05:18:34;;;;;;;42.30;16.25;;;8.90;99.90;;;;;;4998119;28;90868;-77
2023/02/12 05:21:03;;;;;;;37.90;16.23;;;8.90;99.90;;;;;;4999353;28;88694;-77
2023/02/12 05:23:33;;;;;;;39.35;16.23;;;8.90;99.90;;;;;;4997852;28;88528;-77
2023/02/12 05:26:04;;;;;;;33.72;15.55;;;8.90;99.90;;;;;;4999332;28;89933;-77
2023/02/12 05:28:31;;;;;;;32.33;15.63;;;8.80;99.90;;;;;;4999531;28;88653;-77
2023/02/12 05:31:00;;;;;;;36.15;14.38;;;8.80;99.90;;;;;;4999465;28;88931;-78
2023/02/12 05:33:27;;;;;;;30.38;14.93;;;8.80;99.90;;;;;;4996642;28;91547;-78
2023/02/12 05:35:54;;;;;;;28.92;14.82;;;8.80;99.90;;;;;;4981385;28;90005;-78
2023/02/12 05:38:22;;;;;;;28.80;15.13;;;8.80;99.90;;;;;;4997726;28;91211;-77
2023/02/12 05:40:49;;;;;;;28.95;15.63;;;8.70;99.90;;;;;;4998537;28;100265;-77
2023/02/12 05:43:16;;;;;;;30.55;14.55;;;8.70;99.90;;;;;;4999024;28;88463;-77
2023/02/12 05:45:43;;;;;;;24.20;14.13;;;8.70;99.90;;;;;;4981691;28;88940;-77
2023/02/12 05:48:11;;;;;;;28.83;13.90;;;8.70;99.90;;;;;;4998025;28;89417;-77
2023/02/12 05:50:37;;;;;;;28.30;13.85;;;8.70;99.90;;;;;;4998792;28;88949;-77
2023/02/12 05:53:09;;;;;;;29.17;14.40;;;8.70;99.90;;;;;;4981472;28;90933;-77
2023/02/12 05:55:36;;;;;;;30.05;14.73;;;8.70;99.90;;;;;;4998847;28;88574;-77
2023/02/12 05:58:04;;;;;;;26.73;15.10;;;8.70;99.90;;;;;;4981201;28;92343;-77
2023/02/12 06:00:31;;;;;;;27.27;13.98;;;8.70;99.90;;;;;;4998730;28;88802;-77
2023/02/12 06:02:58;;;;;;;27.08;14.43;;;8.60;99.90;;;;;;4997733;28;91139;-77
2023/02/12 06:05:25;;;;;;;25.88;13.65;;;8.60;99.90;;;;;;4997729;28;88862;-77
2023/02/12 06:07:52;;;;;;;28.90;14.35;;;8.60;99.90;;;;;;4998706;28;89369;-77
2023/02/12 06:10:19;;;;;;;29.00;15.15;;;8.60;99.90;;;;;;4997569;28;89008;-77
2023/02/12 06:12:46;;;;;;;26.35;14.38;;;8.60;99.90;;;;;;4997773;28;89050;-77
2023/02/12 06:15:13;;;;;;;27.83;14.95;;;8.60;99.90;;;;;;4996498;28;93147;-77
2023/02/12 06:17:40;;;;;;;30.42;14.95;;;8.60;99.90;;;;;;4978497;28;95238;-77
2023/02/12 06:20:08;;;;;;;30.52;15.43;;;8.60;99.90;;;;;;4996564;28;92357;-77
2023/02/12 06:22:37;;;;;;;27.58;15.07;;;8.60;99.90;;;;;;4994934;28;92588;-77
2023/02/12 06:25:04;;;;;;;36.17;14.95;;;8.60;99.90;;;;;;4993885;28;95638;-77
2023/02/12 06:27:31;;;;;;;30.48;15.80;;;8.60;99.90;;;;;;4996027;28;95446;-77
2023/02/12 06:29:58;;;;;;;35.05;16.58;;;8.60;99.90;;;;;;4995117;28;92505;-77
2023/02/12 06:32:25;;;;;;;36.75;16.55;;;8.60;99.90;;;;;;4994610;28;92445;-77
2023/02/12 06:34:52;;;;;;;33.90;15.82;;;8.60;99.90;;;;;;4994901;28;93340;-77
2023/02/12 06:37:19;;;;;;;30.80;15.73;;;8.60;99.90;;;;;;4995250;28;93134;-77
2023/02/12 06:39:47;;;;;;;32.58;17.25;;;8.60;99.90;;;;;;4978045;28;98535;-77
2023/02/12 06:42:13;;;;;;;29.27;15.20;;;8.60;99.90;;;;;;4979102;28;91701;-77
2023/02/12 06:44:40;;;;;;;32.13;15.20;;;8.60;99.90;;;;;;4994294;28;95048;-77
2023/02/12 06:47:07;;;;;;;28.80;15.10;;;8.60;99.90;;;;;;4994565;28;95803;-77
2023/02/12 06:49:34;;;;;;;31.10;15.13;;;8.60;99.90;;;;;;4976451;28;94938;-77
2023/02/12 06:52:01;;;;;;;30.85;14.98;;;8.60;99.90;;;;;;4995086;28;92450;-77
2023/02/12 06:54:29;;;;;;;27.63;14.25;;;8.60;99.90;;;;;;4995701;28;93211;-77
2023/02/12 06:56:56;;;;;;;25.35;13.90;;;8.60;99.90;;;;;;4994742;28;92934;-77
2023/02/12 06:59:23;;;;;;;26.85;14.75;;;8.60;99.90;;;;;;4995812;28;92404;-77
2023/02/12 07:01:50;;;;;;;30.02;14.63;;;8.60;99.90;;;;;;4977640;28;99520;-77
2023/02/12 07:04:17;;;;;;;25.77;13.45;;;8.60;99.90;;;;;;4994371;28;94405;-77
2023/02/12 07:06:44;;;;;;;25.63;13.63;;;8.60;99.90;;;;;;4996032;28;92951;-77
2023/02/12 07:09:11;;;;;;;25.83;14.25;;;8.70;99.90;;;;;;4994362;28;92407;-77
2023/02/12 07:11:38;;;;;;;27.02;14.48;;;8.70;99.90;;;;;;4977526;28;92565;-77
2023/02/12 07:14:06;;;;;;;26.10;15.30;;;8.70;99.90;;;;;;4994417;28;95234;-77
2023/02/12 07:16:33;;;;;;;25.50;14.38;;;8.70;99.90;;;;;;4993977;28;95366;-77
2023/02/12 07:19:00;;;;;;;24.80;13.82;;;8.70;99.90;;;;;;4994310;28;92963;-77
2023/02/12 07:21:27;;;;;;;26.85;14.98;;;8.70;99.90;;;;;;4994099;28;92473;-77
2023/02/12 07:23:54;;;;;;;24.77;12.95;;;8.80;99.90;;;;;;4994354;28;93338;-77
2023/02/12 07:26:21;;;;;;;25.63;13.27;;;8.80;99.90;;;;;;4994065;28;95716;-77
2023/02/12 07:28:51;;;;;;;23.70;13.00;;;8.90;99.90;;;;;;4993985;28;92387;-77
2023/02/12 07:31:21;;;;;;;24.23;13.15;;;8.90;99.90;;;;;;4995902;28;91695;-77
2023/02/12 07:33:48;;;;;;;25.17;12.48;;;8.90;99.90;;;;;;4993909;28;93255;-77
2023/02/12 07:36:18;;;;;;;23.55;12.15;;;8.90;99.90;;;;;;4994100;28;92961;-77
2023/02/12 07:38:45;;;;;;;26.98;13.18;;;9.00;99.90;;;;;;4992649;28;94981;-77
2023/02/12 07:41:18;;;;;;;29.65;14.07;;;9.00;99.90;;;;;;4995065;28;96108;-77
2023/02/12 07:43:46;;;;;;;28.73;12.60;;;9.00;99.90;;;;;;4993848;28;93372;-77
2023/02/12 07:46:17;;;;;;;25.83;12.32;;;9.00;99.90;;;;;;4993835;28;92870;-77
2023/02/12 07:48:45;;;;;;;24.42;12.98;;;9.10;99.90;;;;;;4995239;28;92452;-77
2023/02/12 07:51:18;;;;;;;30.98;13.55;;;9.10;99.90;;;;;;4993841;28;92963;-77
2023/02/12 07:53:45;;;;;;;26.35;12.82;;;9.20;99.90;;;;;;4995023;28;93699;-77
2023/02/12 07:56:16;;;;;;;25.23;12.70;;;9.20;99.90;;;;;;4995049;28;92857;-78
2023/02/12 07:58:44;;;;;;;24.60;12.70;;;9.20;99.90;;;;;;4994110;28;92454;-78
2023/02/12 08:01:18;;;;;;;25.67;12.70;;;9.20;99.90;;;;;;4994846;28;96478;-77
2023/02/12 08:03:46;;;;;;;25.95;13.27;;;9.20;99.90;;;;;;4992421;28;97913;-78
2023/02/12 08:06:15;;;;;;;26.73;13.63;;;9.30;99.90;;;;;;4994724;28;95762;-78
2023/02/12 08:08:42;;;;;;;25.83;12.00;;;9.40;99.90;;;;;;4977073;28;92612;-77
2023/02/12 08:11:11;;;;;;;21.92;12.95;;;9.50;99.90;;;;;;4994953;28;92491;-77
2023/02/12 08:13:39;;;;;;;24.45;13.10;;;9.50;99.90;;;;;;4994602;28;93371;-78
2023/02/12 08:16:09;;;;;;;21.95;12.63;;;9.60;99.90;;;;;;4976997;28;94028;-77
2023/02/12 08:18:37;;;;;;;26.00;14.00;;;9.70;99.90;;;;;;4993503;28;92448;-78
2023/02/12 08:21:10;;;;;;;27.52;14.05;;;9.70;99.90;;;;;;4995418;28;91741;-78
2023/02/12 08:23:37;;;;;;;24.60;13.32;;;9.80;99.90;;;;;;4993159;28;95902;-78
2023/02/12 08:26:10;;;;;;;24.60;13.23;;;9.80;99.90;;;;;;4994915;28;93128;-78
2023/02/12 08:28:40;;;;;;;23.80;13.30;;;9.90;99.90;;;;;;4993728;28;94711;-78
2023/02/12 08:31:10;;;;;;;21.52;13.02;;;9.90;99.90;;;;;;4993412;28;92542;-78
2023/02/12 08:33:37;;;;;;;25.67;12.88;;;9.90;99.90;;;;;;4994651;28;92481;-77
2023/02/12 08:36:10;;;;;;;21.95;11.85;;;9.90;99.90;;;;;;4976610;28;95916;-77
2023/02/12 08:38:38;;;;;;;22.00;11.55;;;10.00;99.90;;;;;;4993250;28;92507;-78
2023/02/12 08:41:09;;;;;;;21.05;13.82;;;10.10;99.90;;;;;;4994675;28;92602;-78
2023/02/12 08:43:38;;;;;;;20.92;11.93;;;10.20;99.90;;;;;;4994742;28;93574;-78
2023/02/12 08:46:09;;;;;;;18.70;11.93;;;10.20;99.90;;;;;;4994801;28;93143;-77
2023/02/12 08:48:37;;;;;;;21.58;11.50;;;10.30;99.90;;;;;;4994609;28;92987;-78
2023/02/12 08:51:06;;;;;;;18.40;12.00;;;10.40;99.90;;;;;;4994291;28;92480;-77
2023/02/12 08:53:34;;;;;;;22.88;13.60;;;10.40;99.90;;;;;;4991856;28;98138;-78
2023/02/12 08:56:01;;;;;;;19.77;12.73;;;10.60;99.90;;;;;;4992988;28;94315;-77
2023/02/12 08:58:28;;;;;;;21.17;12.63;;;10.60;99.90;;;;;;4993478;28;92479;-77
2023/02/12 09:00:55;;;;;;;19.65;13.35;;;10.70;99.90;;;;;;4993345;28;93467;-77
2023/02/12 09:03:22;;;;;;;21.30;13.18;;;10.70;99.90;;;;;;4993355;28;93001;-78
2023/02/12 09:05:50;;;;;;;18.80;12.15;;;10.80;99.90;;;;;;4992955;28;93074;-77
2023/02/12 09:08:17;;;;;;;22.02;11.75;;;10.80;99.90;;;;;;4996663;28;92391;-77
2023/02/12 09:10:44;;;;;;;22.13;13.32;;;10.80;99.90;;;;;;4998162;28;91720;-77
2023/02/12 09:13:13;;;;;;;19.90;12.23;;;10.90;99.90;;;;;;4997810;28;93301;-78
2023/02/12 09:15:42;;;;;;;21.20;11.45;;;10.90;99.90;;;;;;4995921;28;95864;-77
2023/02/12 09:18:12;;;;;;;19.52;11.68;;;11.00;99.90;;;;;;4996698;28;94886;-77
2023/02/12 09:20:41;;;;;;;18.73;11.27;;;11.10;99.90;;;;;;4996168;28;92514;-78
2023/02/12 09:23:11;;;;;;;18.73;12.00;;;11.10;99.90;;;;;;4996294;28;93216;-78
2023/02/12 09:25:43;;;;;;;18.08;11.10;;;11.20;99.90;;;;;;4997269;28;93117;-78
2023/02/12 09:28:12;;;;;;;16.35;10.55;;;11.30;99.90;;;;;;4996012;28;92491;-78
2023/02/12 09:30:40;;;;;;;18.38;11.32;;;11.30;99.90;;;;;;4996024;28;98576;-78
2023/02/12 09:33:09;;;;;;;19.77;11.45;;;11.40;99.90;;;;;;4995826;28;93251;-78
2023/02/12 09:35:39;;;;;;;18.35;12.40;;;11.50;99.90;;;;;;4997484;28;93128;-78
2023/02/12 09:38:07;;;;;;;22.15;12.68;;;11.50;99.90;;;;;;4995739;28;92462;-78
2023/02/12 09:41:02;;;;;;;19.67;11.77;;;11.50;99.90;;;;;;4997111;28;92563;-77
2023/02/12 09:44:07;;;;;;;19.10;12.27;;;11.60;99.90;;;;;;4995860;28;95752;-78
2023/02/12 09:46:41;;;;;;;;;;;11.60;99.90;;;;;;4997726;28;95350;-78
2023/02/12 09:49:41;;;;;;;18.70;13.02;;;11.50;99.90;;;;;;4998791;28;92333;-78
2023/02/12 09:52:36;;;;;;;20.38;12.65;;;11.50;99.90;;;;;;4979088;28;92487;-78
2023/02/12 09:55:03;;;;;;;18.85;11.82;;;11.60;99.90;;;;;;4992721;28;93263;-77
2023/02/12 09:57:35;;;;;;;21.23;12.23;;;11.60;99.90;;;;;;4995471;28;94635;-78
2023/02/12 10:00:05;;;;;;;20.15;13.18;;;11.70;99.90;;;;;;4995556;28;92479;-78
2023/02/12 10:02:38;;;;;;;17.83;12.23;;;11.80;99.90;;;;;;4996188;28;91909;-78
2023/02/12 10:05:18;;;;;;;19.67;12.23;;;11.90;99.90;;;;;;4995534;28;93215;-78
2023/02/12 10:08:04;;;;;;;19.70;12.05;;;12.00;99.90;;;;;;4995841;28;93080;-77
2023/02/12 10:10:55;;;;;;;20.45;11.90;;;12.00;99.90;;;;;;4977853;28;94873;-78
2023/02/12 10:13:44;;;;;;;17.58;11.25;;;12.10;99.90;;;;;;4996200;28;92526;-78
2023/02/12 10:16:13;;;;;;;19.90;11.80;;;12.10;99.90;;;;;;4995151;28;93310;-78
2023/02/12 10:19:08;;;;;;;17.88;11.38;;;12.10;99.90;;;;;;4978380;28;95302;-78
2023/02/12 10:21:50;;;;;;;21.75;12.52;;;12.20;99.90;;;;;;4995923;28;92562;-78
2023/02/12 10:24:35;;;;;;;19.40;11.90;;;12.30;99.90;;;;;;4996862;28;92432;-78
2023/02/12 10:27:13;;;;;;;19.45;12.10;;;12.40;99.90;;;;;;4994949;28;96384;-78
2023/02/12 10:29:42;;;;;;;19.30;10.95;;;12.40;99.90;;;;;;4997014;28;93040;-77
2023/02/12 10:32:26;;;;;;;20.67;11.88;;;12.40;99.90;;;;;;4994715;28;92453;-78
2023/02/12 10:34:55;;;;;;;16.95;10.90;;;12.60;99.90;;;;;;4995608;28;92598;-77
2023/02/12 10:37:44;;;;;;;17.48;11.10;;;12.60;99.90;;;;;;4993469;28;95696;-78
2023/02/12 10:40:26;;;;;;;20.70;12.05;;;12.70;99.90;;;;;;4996156;28;95245;-78
2023/02/12 10:42:53;;;;;;;17.05;11.52;;;12.70;99.90;;;;;;4996329;28;93062;-78
2023/02/12 10:45:25;;;;;;;18.17;10.45;;;12.60;99.90;;;;;;4978225;28;92475;-78
2023/02/12 10:48:02;;;;;;;16.67;10.60;;;12.70;99.90;;;;;;4996093;28;93270;-78
2023/02/12 10:50:33;;;;;;;17.90;11.27;;;12.80;99.90;;;;;;4994698;28;92532;-78
2023/02/12 10:53:04;;;;;;;15.23;10.48;;;12.80;99.90;;;;;;4993856;28;92690;-78
2023/02/12 10:55:34;;;;;;;14.63;10.65;;;12.80;99.90;;;;;;4995322;28;91826;-78
2023/02/12 10:58:03;;;;;;;16.05;10.60;;;12.90;99.90;;;;;;4994545;28;93813;-78
2023/02/12 11:00:36;;;;;;;21.17;10.98;;;12.90;99.90;;;;;;4994657;28;92946;-78
2023/02/12 11:03:03;;;;;;;14.07;9.90;;;13.10;99.90;;;;;;4993214;28;95142;-78
2023/02/12 11:05:33;;;;;;;16.73;11.32;;;13.10;99.90;;;;;;4996719;28;92405;-78
2023/02/12 11:08:02;;;;;;;15.27;10.57;;;13.20;99.90;;;;;;4996040;28;93237;-78
2023/02/12 11:10:33;;;;;;;17.13;10.80;;;13.30;99.90;;;;;;4994224;28;94157;-78
2023/02/12 11:13:02;;;;;;;17.92;11.10;;;13.30;99.90;;;;;;4994433;28;92847;-78
2023/02/12 11:15:52;;;;;;;15.32;10.00;;;13.30;99.90;;;;;;4994867;28;92483;-78
2023/02/12 11:18:28;;;;;;;14.05;10.13;;;13.40;99.90;;;;;;4994043;28;94506;-78
2023/02/12 11:21:05;;;;;;;16.88;10.15;;;13.40;99.90;;;;;;4994455;28;93130;-78
2023/02/12 11:23:41;;;;;;;17.63;10.80;;;13.40;99.90;;;;;;4994470;28;92490;-78
2023/02/12 11:26:17;;;;;;;13.02;8.93;;;13.40;99.90;;;;;;4996015;28;92356;-78
2023/02/12 11:28:55;;;;;;;14.20;9.60;;;13.50;99.90;;;;;;4993624;28;98285;-78
2023/02/12 11:31:31;;;;;;;15.38;10.63;;;13.60;99.90;;;;;;4976772;28;97933;-78
2023/02/12 11:34:10;;;;;;;13.90;8.80;;;13.70;99.90;;;;;;4994607;28;92436;-78
2023/02/12 11:36:44;;;;;;;11.57;8.35;;;13.70;99.90;;;;;;4978725;28;92406;-78
2023/02/12 11:39:17;;;;;;;;;;;13.70;99.90;;;;;;4995379;28;93302;-78
2023/02/12 11:41:53;;;;;;;11.93;8.63;;;13.60;99.90;;;;;;4997421;28;93316;-78
2023/02/12 11:44:22;;;;;;;14.63;9.40;;;13.60;99.90;;;;;;4994616;28;92443;-78
2023/02/12 11:46:54;;;;;;;13.60;8.30;;;13.70;99.90;;;;;;4994825;28;92000;-78
2023/02/12 11:49:33;;;;;;;12.80;8.95;;;13.70;99.90;;;;;;4995419;28;93394;-78
2023/02/12 11:52:03;;;;;;;13.50;8.93;;;13.80;99.90;;;;;;4995951;28;92493;-78
2023/02/12 11:54:39;;;;;;;11.95;7.63;;;13.80;99.90;;;;;;4995066;28;94741;-78
2023/02/12 11:57:09;;;;;;;12.13;7.57;;;13.80;99.90;;;;;;4995960;28;92315;-78
2023/02/12 11:59:43;;;;;;;12.35;8.68;;;13.80;99.90;;;;;;4994306;28;95766;-78
2023/02/12 12:02:18;;;;;;;11.82;8.57;;;13.90;99.90;;;;;;4993868;28;95519;-78
2023/02/12 12:04:50;;;;;;;13.15;8.23;;;13.80;99.90;;;;;;4995935;28;92500;-78
2023/02/12 12:07:30;;;;;;;11.75;7.68;;;13.70;99.90;;;;;;4978236;28;92912;-78
2023/02/12 12:10:11;;;;;;;11.85;7.82;;;13.70;99.90;;;;;;4995653;28;93338;-78
2023/02/12 12:12:46;;;;;;;11.80;7.22;;;13.50;99.90;;;;;;4994566;28;95833;-78
2023/02/12 12:21:53;;;;;;;11.63;7.53;;;13.30;99.90;;;;;;4992249;28;98577;-78
2023/02/12 12:24:28;;;;;;;12.88;8.25;;;13.40;99.90;;;;;;4995341;28;95310;-78
2023/02/12 12:27:02;;;;;;;12.00;8.05;;;13.60;99.90;;;;;;4994152;28;92561;-78
2023/02/12 12:29:59;;;;;;;6.70;5.65;;;13.80;99.90;;;;;;4994111;28;92752;-78
2023/02/12 12:32:30;;;;;;;6.97;4.40;;;14.00;99.90;;;;;;4993654;28;96081;-78
2023/02/12 12:34:57;;;;;;;10.32;4.55;;;13.90;99.90;;;;;;4993824;28;97035;-78
2023/02/12 12:37:28;;;;;;;4.82;3.67;;;13.90;99.90;;;;;;4995337;28;93033;-78
2023/02/12 12:40:08;;;;;;;6.82;3.20;;;13.70;99.90;;;;;;4995777;28;91581;-78
2023/02/12 12:42:47;;;;;;;4.55;2.80;;;13.50;99.90;;;;;;4996066;28;95968;-78
2023/02/12 12:45:44;;;;;;;5.78;2.38;;;13.50;99.90;;;;;;4980545;28;95981;-78
2023/02/12 12:48:27;;;;;;;2.83;2.35;;;13.60;99.90;;;;;;4983533;28;95308;-78
2023/02/12 12:51:30;;;;;;;2.10;1.80;;;13.50;99.90;;;;;;4998366;28;92521;-78
2023/02/12 12:54:10;;;;;;;2.97;2.67;;;13.60;99.90;;;;;;4920892;28;93264;-78
2023/02/12 12:56:43;;;;;;;3.80;1.50;;;13.50;99.90;;;;;;4992307;28;93469;-78
2023/02/12 12:59:15;;;;;;;1.20;1.10;;;13.50;99.90;;;;;;4999108;28;92438;-78
2023/02/12 13:01:57;;;;;;;3.20;1.10;;;13.40;99.90;;;;;;4998418;28;92467;-78
2023/02/12 13:04:36;;;;;;;2.08;1.13;;;13.40;99.90;;;;;;4980419;28;95817;-78
2023/02/12 13:07:31;;;;;;;1.45;1.10;;;13.30;99.90;;;;;;4998629;28;93071;-78
2023/02/12 13:10:16;;;;;;;2.72;1.23;;;13.20;99.90;;;;;;4998660;28;92439;-78
2023/02/12 13:12:49;;;;;;;4.18;1.40;;;13.10;99.90;;;;;;4997329;28;92905;-78
2023/02/12 13:15:33;;;;;;;1.75;0.98;;;12.90;99.90;;;;;;4996901;28;95554;-78